Flight Track Log - Related Links

Times and Time Zones

All times are in EDT time to prevent confusion due to time zone crossing. See the N814GV flight status page for this flight to view local times or setup timezone preferences in your user account.

Time Position Orientation Groundspeed Altitude Reporting Facility
EDT Latitude Longitude Course Direction KTS MPH feet Rate Location/Type
Mon 04:04:41 PM 68.2167 -166.4833 118° Southeast 140 161 3,600  Level Anchorage Center
Mon 04:05:41 PM 68.2000 -166.4000 118° Southeast 130 150 4,300 700 Climbing Anchorage Center
Mon 04:06:41 PM 68.1833 -166.3167 118° Southeast 130 150 5,000 650 Climbing Anchorage Center
Mon 04:07:41 PM 68.1500 -166.2500 143° Southeast 130 150 5,600 650 Climbing Anchorage Center
Mon 04:08:41 PM 68.1333 -166.1833 124° Southeast 120 138 6,300 700 Climbing Anchorage Center
Mon 04:09:41 PM 68.1000 -166.1167 143° Southeast 120 138 7,000 500 Climbing Anchorage Center
Mon 04:10:41 PM 68.0833 -166.0333 118° Southeast 140 161 7,300 149 Climbing Anchorage Center
Mon 04:11:42 PM 68.0500 -165.9500 137° Southeast 150 173 7,300  Level Anchorage Center
Mon 04:12:42 PM 68.0333 -165.8667 118° Southeast 150 173 7,300 -150 Level Anchorage Center
Mon 04:13:42 PM 68.0000 -165.7833 137° Southeast 150 173 7,000  Descending Anchorage Center
Mon 04:14:42 PM 67.9833 -165.7000 118° Southeast 150 173 7,300  Climbing Anchorage Center
Mon 04:15:42 PM 67.9500 -165.6167 137° Southeast 150 173 7,000 -150 Descending Anchorage Center
Mon 04:16:42 PM 67.9167 -165.5333 137° Southeast 150 173 7,000 150 Level Anchorage Center
Mon 04:17:42 PM 67.8833 -165.4500 137° Southeast 150 173 7,300  Climbing Anchorage Center
Mon 04:18:42 PM 67.8667 -165.3667 118° Southeast 150 173 7,000 -150 Descending Anchorage Center
Mon 04:19:42 PM 67.8333 -165.2833 137° Southeast 150 173 7,000 149 Level Anchorage Center
Mon 04:20:43 PM 67.8000 -165.2000 137° Southeast 150 173 7,300 150 Climbing Anchorage Center
Mon 04:21:42 PM 67.7833 -165.1167 118° Southeast 150 173 7,300 -151 Level Anchorage Center
Mon 04:22:42 PM 67.7500 -165.0333 137° Southeast 160 184 7,000  Descending Anchorage Center
Mon 04:23:43 PM 67.7167 -164.9500 137° Southeast 150 173 7,300 149 Climbing Anchorage Center
Mon 04:24:43 PM 67.7000 -164.8667 118° Southeast 150 173 7,300  Level Anchorage Center
Mon 04:26:00 PM 67.6592 -164.7462 132° Southeast  Level FlightAware Approximate
Mon 04:33:00 PM 67.4354 -164.0962 132° Southeast  Level FlightAware Approximate
Mon 04:34:00 PM 67.4033 -164.0044 132° Southeast  Level FlightAware Approximate
Mon 04:35:00 PM 67.3710 -163.9128 132° Southeast  Level FlightAware Approximate
Mon 04:36:00 PM 67.3387 -163.8214 133° Southeast  Level FlightAware Approximate
Mon 04:37:00 PM 67.3064 -163.7303 133° Southeast  Level FlightAware Approximate
Mon 04:38:00 PM 67.2740 -163.6394 133° Southeast  Level FlightAware Approximate
Mon 04:39:00 PM 67.2415 -163.5488 133° Southeast  Level FlightAware Approximate
Mon 04:40:00 PM 67.2091 -163.4585 133° Southeast  Level FlightAware Approximate
Mon 04:41:00 PM 67.1752 -163.3714 136° Southeast  Level FlightAware Approximate
Mon 04:42:00 PM 67.1434 -163.2799 131° Southeast  Level FlightAware Approximate
Mon 04:43:00 PM 67.1116 -163.1885 139° Southeast  Level FlightAware Approximate
Mon 04:44:00 PM 67.0757 -163.1076 139° Southeast  Level FlightAware Approximate
Mon 04:45:00 PM 67.0412 -163.0234 130° Southeast  Level FlightAware Approximate
Mon 04:46:00 PM 67.0101 -162.9303 130° Southeast  Level FlightAware Approximate
Mon 04:47:00 PM 66.9770 -162.8424 136° Southeast  Level FlightAware Approximate
Mon 04:48:00 PM 66.9429 -162.7572 136° Southeast  Level FlightAware Approximate
Mon 04:49:00 PM 66.9111 -162.6664 130° Southeast  Level FlightAware Approximate
Mon 04:50:00 PM 66.8833 -162.5833 130° Southeast  Level FlightAware Approximate
Mon 04:51:00 PM 66.8847 -162.5985 130° Southeast  Level Estimated
Mon 04:52:00 PM 66.8833 -162.5833 130° Southeast  Level FlightAware Approximate
Mon 04:53:00 PM 66.8847 -162.5985 130° Southeast  Level Estimated
Mon 04:54:00 PM 66.8833 -162.5833 130° Southeast  Level FlightAware Approximate
Mon 04:55:00 PM 66.8847 -162.5985 130° Southeast  Level Estimated
Mon 04:56:00 PM 66.8833 -162.5833 130° Southeast  Level FlightAware Approximate
Mon 04:57:00 PM 66.8847 -162.5985 130° Southeast  Level Estimated
Mon 04:58:00 PM 66.8833 -162.5833 130° Southeast  Level FlightAware Approximate
Mon 04:59:00 PM 66.8847 -162.5985 130° Southeast  Level Estimated
Mon 05:00:00 PM 66.8833 -162.5833 130° Southeast  Level FlightAware Approximate
Mon 05:01:00 PM 66.8847 -162.5985 130° Southeast  Level Estimated
Mon 05:02:00 PM 66.8833 -162.5833 130° Southeast  Level FlightAware Approximate
Mon 05:03:00 PM 66.8847 -162.5985 130° Southeast  Level Estimated
Mon 05:04:00 PM 66.8833 -162.5833 130° Southeast  Level FlightAware Approximate
Mon 05:05:00 PM 66.8847 -162.5985 130° Southeast  Level Estimated

Login

Don't have an account? Register now (free) for customized features, flight alerts, and more!